Time;durP1;ratioP1;P1;durP2;ratioP2;P2;SDS_P1;SDS_P2;PMS_P1;PMS_P2;Temp;Humidity;BMP_temperature;BMP_pressure;BME280_temperature;BME280_humidity;BME280_pressure;Samples;Min_cycle;Max_cycle;Signal;HPM_P1;HPM_P2
2022/09/06 00:01:57;;;;;;;3.35;1.30;;;;;;;15.96;51.84;101357.26;1610276;87;21062;-74
2022/09/06 00:04:24;;;;;;;2.62;1.00;;;;;;;15.91;51.82;101355.27;1625060;87;21024;-74
2022/09/06 00:06:51;;;;;;;4.62;1.40;;;;;;;15.90;51.97;101353.54;1619696;87;21501;-73
2022/09/06 00:09:18;;;;;;;2.52;1.10;;;;;;;15.87;51.97;101348.39;1619808;87;21048;-74
2022/09/06 00:11:45;;;;;;;2.50;1.32;;;;;;;15.82;51.89;101349.05;1618713;87;21530;-74
2022/09/06 00:14:12;;;;;;;2.15;1.17;;;;;;;15.79;51.97;101342.11;1619041;87;21056;-74
2022/09/06 00:16:39;;;;;;;3.90;1.30;;;;;;;15.75;51.99;101348.47;1618996;87;21053;-78
2022/09/06 00:19:06;;;;;;;1.77;1.05;;;;;;;15.71;52.16;101346.91;1618907;87;21467;-74
2022/09/06 00:21:34;;;;;;;3.52;1.40;;;;;;;15.65;52.20;101352.39;1619131;87;21091;-74
2022/09/06 00:24:02;;;;;;;1.75;1.05;;;;;;;15.59;52.13;101351.34;1680125;84;21135;-74
2022/09/06 00:26:29;;;;;;;5.20;1.60;;;;;;;15.52;52.26;101357.36;1672215;84;21063;-74
2022/09/06 00:28:57;;;;;;;4.20;1.30;;;;;;;15.48;52.10;101357.08;1670941;84;21048;-74
2022/09/06 00:31:26;;;;;;;3.22;1.02;;;;;;;15.47;52.41;101353.20;1670805;84;21049;-74
2022/09/06 00:33:53;;;;;;;3.15;1.40;;;;;;;15.45;52.38;101351.08;1670863;84;21012;-74
2022/09/06 00:36:21;;;;;;;3.25;1.25;;;;;;;15.43;52.60;101356.41;1671070;84;21108;-74
2022/09/06 00:38:49;;;;;;;4.92;1.52;;;;;;;15.39;52.56;101346.91;1670878;84;21526;-74
2022/09/06 00:41:16;;;;;;;3.37;1.40;;;;;;;15.34;52.46;101342.27;1671145;84;21051;-74
2022/09/06 00:43:43;;;;;;;3.20;1.50;;;;;;;15.31;52.47;101347.22;1670821;84;21033;-74
2022/09/06 00:46:21;;;;;;;2.98;1.10;;;;;;;15.29;52.53;101345.56;1671033;84;21330;-74
2022/09/06 00:48:52;;;;;;;3.72;1.05;;;;;;;15.29;52.64;101352.17;1671015;84;21269;-74
2022/09/06 00:51:21;;;;;;;2.52;1.00;;;;;;;15.28;52.80;101348.67;1670262;84;21024;-74
2022/09/06 00:53:49;;;;;;;2.85;1.30;;;;;;;15.26;52.78;101341.73;1671042;84;21522;-74
2022/09/06 00:56:16;;;;;;;4.10;1.30;;;;;;;15.24;52.75;101343.14;1671066;84;21012;-74
2022/09/06 00:58:44;;;;;;;2.70;1.40;;;;;;;15.21;52.63;101332.67;1670827;84;21599;-74
2022/09/06 01:01:11;;;;;;;3.08;1.30;;;;;;;15.20;52.72;101332.75;1671055;84;21970;-74
2022/09/06 01:03:38;;;;;;;4.20;1.10;;;;;;;15.18;52.73;101329.69;1670735;84;21537;-74
2022/09/06 01:06:17;;;;;;;2.20;1.15;;;;;;;15.15;52.67;101328.97;1671162;84;20984;-74
2022/09/06 01:09:12;;;;;;;1.80;1.00;;;;;;;15.13;52.82;101327.73;1670930;84;21033;-74
2022/09/06 01:12:19;;;;;;;2.55;1.15;;;;;;;15.09;52.96;101319.52;1670288;84;21123;-74
2022/09/06 01:15:06;;;;;;;2.33;1.20;;;;;;;15.09;53.05;101318.20;1670533;84;21127;-75
2022/09/06 01:18:00;;;;;;;3.40;1.20;;;;;;;15.05;53.15;101310.48;1681223;84;21063;-74
2022/09/06 01:20:35;;;;;;;2.92;1.17;;;;;;;14.98;53.04;101307.69;1677356;84;21143;-75
2022/09/06 01:23:27;;;;;;;2.33;1.20;;;;;;;14.92;53.04;101306.16;1676921;84;21077;-74
2022/09/06 01:26:28;;;;;;;5.45;1.20;;;;;;;14.89;53.22;101313.73;1665133;84;21485;-75
2022/09/06 01:28:56;;;;;;;1.57;1.10;;;;;;;14.86;53.32;101318.30;1654014;85;21281;-74
2022/09/06 01:31:49;;;;;;;2.70;1.12;;;;;;;14.80;53.37;101314.55;1645187;86;21008;-74
2022/09/06 01:34:30;;;;;;;5.20;1.55;;;;;;;14.77;53.47;101318.20;1645233;87;21017;-75
2022/09/06 01:37:07;;;;;;;3.27;1.15;;;;;;;14.71;53.39;101319.31;1644510;87;21025;-75
2022/09/06 01:39:36;;;;;;;1.75;1.00;;;;;;;14.68;53.60;101319.87;1640647;86;21637;-75
2022/09/06 01:42:20;;;;;;;2.73;1.20;;;;;;;14.67;53.65;101328.25;1648379;86;21939;-75
2022/09/06 01:44:58;;;;;;;2.15;1.07;;;;;;;14.64;53.65;101325.73;1645452;86;21050;-74
2022/09/06 01:48:09;;;;;;;3.87;1.25;;;;;;;14.63;53.74;101321.82;1660001;86;21004;-75
2022/09/06 01:51:17;;;;;;;4.22;1.45;;;;;;;14.61;53.89;101315.77;1613155;86;21591;-75
2022/09/06 01:54:02;;;;;;;1.75;1.20;;;;;;;14.57;53.95;101308.88;1589695;88;21095;-75
2022/09/06 01:57:04;;;;;;;2.27;1.30;;;;;;;14.57;54.07;101315.01;1589891;88;21772;-75
2022/09/06 01:59:56;;;;;;;2.75;1.50;;;;;;;14.54;54.08;101319.55;1589781;90;21023;-75
2022/09/06 02:02:34;;;;;;;3.00;1.40;;;;;;;14.53;54.19;101320.02;1590012;90;21022;-75
2022/09/06 02:05:13;;;;;;;2.60;1.15;;;;;;;14.48;54.12;101321.94;1589352;90;21325;-75
2022/09/06 02:07:41;;;;;;;2.62;1.25;;;;;;;14.45;54.30;101321.59;1589793;88;21627;-74
2022/09/06 02:10:29;;;;;;;1.85;1.07;;;;;;;14.44;54.58;101321.20;1590191;90;22308;-75
2022/09/06 02:12:59;;;;;;;2.47;1.00;;;;;;;14.45;54.54;101317.64;1589644;90;21039;-75
2022/09/06 02:15:36;;;;;;;2.47;1.57;;;;;;;14.43;54.62;101314.19;1590238;90;21019;-74
2022/09/06 02:18:20;;;;;;;2.00;1.15;;;;;;;14.41;54.54;101309.45;1588385;88;21073;-75
2022/09/06 02:20:52;;;;;;;4.47;1.35;;;;;;;14.37;54.57;101302.56;1590172;90;21062;-75
2022/09/06 02:23:23;;;;;;;2.40;1.30;;;;;;;14.33;54.71;101299.66;1590014;88;22012;-75
2022/09/06 02:25:55;;;;;;;3.77;1.45;;;;;;;14.28;54.78;101298.50;1589832;88;20957;-74
2022/09/06 02:28:22;;;;;;;2.83;1.22;;;;;;;14.25;54.94;101288.08;1590118;88;21050;-74
2022/09/06 02:30:54;;;;;;;6.33;1.45;;;;;;;14.21;55.13;101289.09;1590255;90;21027;-75
2022/09/06 02:33:25;;;;;;;3.80;1.32;;;;;;;14.18;55.07;101296.27;1590109;89;21042;-74
2022/09/06 02:35:54;;;;;;;3.15;1.45;;;;;;;14.13;55.14;101298.22;1590204;88;22004;-75
2022/09/06 02:38:25;;;;;;;2.52;1.00;;;;;;;14.08;55.35;101300.16;1589877;90;21074;-75
2022/09/06 02:40:54;;;;;;;2.65;1.37;;;;;;;14.04;55.42;101300.27;1584092;89;21019;-75
2022/09/06 02:43:22;;;;;;;3.58;1.45;;;;;;;13.98;55.36;101296.55;1599028;88;21057;-75
2022/09/06 02:45:49;;;;;;;2.33;1.40;;;;;;;13.94;55.62;101298.03;1597521;88;21069;-75
2022/09/06 02:48:16;;;;;;;3.65;1.47;;;;;;;13.87;55.83;101292.14;1592374;89;21116;-75
2022/09/06 02:50:43;;;;;;;3.10;1.22;;;;;;;13.82;55.95;101290.98;1590743;89;20990;-75
2022/09/06 02:53:13;;;;;;;3.70;1.27;;;;;;;13.75;56.13;101290.81;1628848;86;21022;-74
2022/09/06 02:55:42;;;;;;;4.10;1.52;;;;;;;13.72;56.19;101292.71;1638039;86;21539;-75
2022/09/06 02:58:11;;;;;;;3.52;1.45;;;;;;;13.67;56.21;101292.86;1637923;87;21037;-75
2022/09/06 03:00:38;;;;;;;4.67;1.15;;;;;;;13.63;56.53;101293.87;1637879;86;21132;-75
2022/09/06 03:03:06;;;;;;;4.83;1.70;;;;;;;13.60;56.65;101290.88;1637654;87;21510;-75
2022/09/06 03:05:33;;;;;;;3.85;1.47;;;;;;;13.57;56.85;101293.63;1637662;87;21140;-74
2022/09/06 03:08:01;;;;;;;2.02;1.20;;;;;;;13.52;56.85;101296.02;1625788;87;21035;-75
2022/09/06 03:10:28;;;;;;;4.15;1.60;;;;;;;13.46;57.14;101301.05;1621139;87;21085;-75
2022/09/06 03:12:55;;;;;;;4.35;1.40;;;;;;;13.40;57.15;101306.53;1637864;87;21928;-75
2022/09/06 03:15:22;;;;;;;4.80;1.60;;;;;;;13.36;57.42;101309.73;1637768;86;21488;-75
2022/09/06 03:17:49;;;;;;;4.92;1.57;;;;;;;13.32;57.65;101312.52;1637944;87;21027;-75
2022/09/06 03:20:16;;;;;;;3.10;1.62;;;;;;;13.27;57.99;101314.44;1638040;86;21116;-75
2022/09/06 03:22:43;;;;;;;3.60;2.17;;;;;;;13.18;58.15;101309.85;1637939;86;21014;-75
2022/09/06 03:25:10;;;;;;;3.85;1.37;;;;;;;13.13;58.56;101310.92;1637974;87;21123;-75
2022/09/06 03:27:37;;;;;;;3.52;1.50;;;;;;;13.06;58.79;101312.05;1637946;86;21550;-78
2022/09/06 03:30:06;;;;;;;3.67;1.42;;;;;;;13.01;58.87;101312.19;1637759;86;21460;-74
2022/09/06 03:32:34;;;;;;;5.33;1.85;;;;;;;12.96;59.23;101314.10;1638208;86;21057;-74
2022/09/06 03:35:01;;;;;;;3.58;1.20;;;;;;;12.95;59.52;101312.39;1638327;87;22260;-75
2022/09/06 03:37:28;;;;;;;3.77;1.45;;;;;;;12.91;59.58;101307.69;1637740;87;21149;-74
2022/09/06 03:39:56;;;;;;;3.70;1.50;;;;;;;12.90;60.01;101304.64;1637766;87;21660;-75
2022/09/06 03:42:25;;;;;;;7.00;1.67;;;;;;;12.94;59.85;101304.07;1637688;87;21015;-75
2022/09/06 03:44:52;;;;;;;2.55;1.52;;;;;;;12.97;60.03;101307.95;1637707;87;21098;-74
2022/09/06 03:47:20;;;;;;;2.72;1.25;;;;;;;13.01;60.11;101312.64;1637962;87;21518;-74
2022/09/06 03:49:47;;;;;;;4.70;1.70;;;;;;;13.01;60.21;101304.75;1637753;87;22141;-75
2022/09/06 03:52:14;;;;;;;2.95;1.50;;;;;;;13.03;60.24;101302.94;1638036;86;21500;-75
2022/09/06 03:54:41;;;;;;;5.05;1.82;;;;;;;13.05;60.41;101295.83;1638346;87;20970;-76
2022/09/06 03:57:09;;;;;;;4.58;1.98;;;;;;;13.11;60.40;101299.60;1638206;87;21487;-77
2022/09/06 03:59:36;;;;;;;3.42;1.75;;;;;;;13.13;60.03;101301.24;1638061;87;21543;-76
2022/09/06 04:02:03;;;;;;;4.53;1.80;;;;;;;13.16;60.09;101297.65;1638174;86;21138;-76
2022/09/06 04:04:30;;;;;;;2.83;1.67;;;;;;;13.20;59.94;101297.97;1637892;87;21109;-76
2022/09/06 04:06:57;;;;;;;3.25;1.70;;;;;;;13.21;60.08;101290.46;1638156;86;22409;-76
2022/09/06 04:09:24;;;;;;;4.30;1.90;;;;;;;13.24;60.25;101290.81;1648832;87;21136;-75
2022/09/06 04:11:51;;;;;;;4.47;1.82;;;;;;;13.26;60.15;101281.98;1640613;87;21073;-76
2022/09/06 04:14:18;;;;;;;3.00;1.60;;;;;;;13.27;60.13;101281.06;1638230;87;21184;-76
2022/09/06 04:16:45;;;;;;;2.47;1.45;;;;;;;13.27;60.11;101281.53;1638021;87;21061;-75
2022/09/06 04:19:12;;;;;;;4.10;1.57;;;;;;;13.26;60.05;101276.73;1638325;87;21077;-76
2022/09/06 04:21:39;;;;;;;5.28;1.60;;;;;;;13.26;60.30;101271.46;1638122;87;21373;-76
2022/09/06 04:24:06;;;;;;;3.20;1.77;;;;;;;13.28;60.13;101270.11;1638020;87;21014;-76
2022/09/06 04:26:34;;;;;;;3.25;1.62;;;;;;;13.29;60.14;101274.45;1638178;87;21170;-76
2022/09/06 04:29:01;;;;;;;2.67;1.70;;;;;;;13.31;60.24;101275.27;1638217;86;21034;-76
2022/09/06 04:31:28;;;;;;;4.42;1.55;;;;;;;13.34;60.25;101272.05;1638056;87;21578;-76
2022/09/06 04:33:54;;;;;;;2.72;1.42;;;;;;;13.34;60.25;101269.42;1638369;87;21062;-76
2022/09/06 04:36:22;;;;;;;3.55;1.50;;;;;;;13.32;60.20;101256.77;1638343;86;21077;-76
2022/09/06 04:38:49;;;;;;;2.37;1.57;;;;;;;13.32;60.25;101264.66;1633960;87;21190;-76
2022/09/06 04:41:17;;;;;;;4.83;1.87;;;;;;;13.35;60.45;101267.64;1632045;87;21057;-76
2022/09/06 04:43:44;;;;;;;4.30;2.10;;;;;;;13.41;60.48;101275.78;1632390;86;21045;-76
2022/09/06 04:46:24;;;;;;;4.95;1.77;;;;;;;13.43;60.48;101281.41;1634851;87;21096;-76
2022/09/06 04:48:52;;;;;;;;;;;;;;;13.47;60.65;101290.05;1622644;87;21081;-76
2022/09/06 04:51:20;;;;;;;4.90;1.60;;;;;;;13.52;60.44;101300.86;1638232;87;21057;-76
2022/09/06 04:53:48;;;;;;;3.37;1.65;;;;;;;13.55;60.35;101305.13;1638123;86;21069;-76
2022/09/06 04:56:18;;;;;;;3.80;1.67;;;;;;;13.59;60.53;101310.25;1638275;87;21129;-76
2022/09/06 04:58:46;;;;;;;;;;;;;;;13.65;60.63;101307.00;1640701;87;21549;-76
2022/09/06 05:01:13;;;;;;;2.65;1.50;;;;;;;13.68;60.88;101308.20;1635545;87;21377;-83
2022/09/06 05:03:40;;;;;;;5.08;1.80;;;;;;;13.70;60.66;101303.29;1634893;87;21152;-79
2022/09/06 05:06:15;;;;;;;4.50;1.77;;;;;;;13.74;60.72;101305.34;1634466;86;21057;-79
2022/09/06 05:08:42;;;;;;;3.52;1.90;;;;;;;13.80;60.67;101300.73;1633035;86;21088;-76
2022/09/06 05:11:11;;;;;;;3.87;1.75;;;;;;;13.77;60.52;101287.67;1635180;86;21089;-82
2022/09/06 05:13:38;;;;;;;5.53;1.70;;;;;;;13.73;60.33;101289.15;1635921;87;21092;-82
2022/09/06 05:16:08;;;;;;;2.40;1.60;;;;;;;13.71;60.46;101293.61;1634927;86;21123;-80
2022/09/06 05:18:35;;;;;;;3.57;1.80;;;;;;;13.72;60.61;101290.08;1635558;86;21065;-80
2022/09/06 05:21:02;;;;;;;3.30;1.65;;;;;;;13.72;60.48;101290.93;1635263;86;21077;-81
2022/09/06 05:23:29;;;;;;;2.77;1.55;;;;;;;13.71;60.37;101289.19;1634906;86;21037;-82
2022/09/06 05:25:56;;;;;;;4.15;2.00;;;;;;;13.67;60.53;101290.23;1635309;86;21636;-82
2022/09/06 05:28:23;;;;;;;4.28;2.10;;;;;;;13.67;60.54;101292.86;1634749;86;21913;-81
2022/09/06 05:30:51;;;;;;;4.83;2.00;;;;;;;13.66;60.65;101288.95;1635087;86;21061;-83
2022/09/06 05:33:22;;;;;;;3.77;1.85;;;;;;;13.65;60.72;101289.41;1634664;86;21069;-78
2022/09/06 05:35:49;;;;;;;3.08;1.62;;;;;;;13.63;60.71;101292.55;1635001;86;22227;-79
2022/09/06 05:38:16;;;;;;;3.17;1.67;;;;;;;13.62;61.00;101293.48;1634003;86;21413;-81
2022/09/06 05:40:44;;;;;;;2.67;1.72;;;;;;;13.68;61.37;101292.40;1634405;86;21164;-78
2022/09/06 05:43:10;;;;;;;3.85;1.60;;;;;;;13.73;61.09;101293.10;1634547;86;21082;-81
2022/09/06 05:45:37;;;;;;;4.25;1.65;;;;;;;13.73;61.12;101284.73;1634890;86;21119;-83
2022/09/06 05:48:04;;;;;;;4.55;1.50;;;;;;;13.75;61.30;101278.95;1634950;86;21069;-82
2022/09/06 05:50:31;;;;;;;3.02;1.62;;;;;;;13.80;61.30;101281.41;1634492;86;21491;-82
2022/09/06 05:52:58;;;;;;;3.25;1.57;;;;;;;13.89;61.54;101280.23;1635291;86;21148;-78
2022/09/06 05:55:25;;;;;;;4.45;1.70;;;;;;;13.93;61.54;101276.09;1634438;86;21089;-83
2022/09/06 05:57:52;;;;;;;3.35;1.85;;;;;;;14.00;61.82;101279.38;1634661;86;21459;-78
2022/09/06 06:00:19;;;;;;;3.98;1.80;;;;;;;14.07;61.37;101272.95;1634922;87;21026;-83
2022/09/06 06:02:47;;;;;;;8.00;2.05;;;;;;;14.09;61.35;101266.31;1634388;86;21792;-80
2022/09/06 06:05:15;;;;;;;4.15;1.95;;;;;;;14.10;61.31;101258.79;1635443;86;21988;-83
2022/09/06 06:07:42;;;;;;;3.17;1.50;;;;;;;14.12;61.24;101264.41;1634300;86;21093;-79
2022/09/06 06:10:10;;;;;;;4.25;1.90;;;;;;;14.13;61.20;101268.75;1634974;86;21073;-83
2022/09/06 06:12:37;;;;;;;3.75;1.77;;;;;;;14.15;61.15;101271.34;1635557;86;21071;-82
2022/09/06 06:15:04;;;;;;;5.00;1.80;;;;;;;14.16;60.96;101275.69;1634555;86;21117;-81
2022/09/06 06:17:31;;;;;;;7.00;1.72;;;;;;;14.17;61.02;101286.19;1634434;86;21183;-83
2022/09/06 06:19:58;;;;;;;3.12;1.47;;;;;;;14.19;60.76;101281.72;1634750;87;21077;-83
2022/09/06 06:22:25;;;;;;;4.47;1.90;;;;;;;14.22;60.97;101286.88;1634420;86;21093;-77
2022/09/06 06:24:53;;;;;;;4.90;1.75;;;;;;;14.27;61.22;101291.52;1633917;86;21306;-82
2022/09/06 06:27:19;;;;;;;3.58;1.70;;;;;;;14.32;61.14;101299.23;1634889;86;21463;-80
2022/09/06 06:29:49;;;;;;;2.62;1.65;;;;;;;14.37;61.16;101307.84;1634738;86;21133;-75
2022/09/06 06:32:16;;;;;;;4.85;2.12;;;;;;;14.42;60.94;101307.67;1634756;86;21073;-80
2022/09/06 06:34:43;;;;;;;4.83;1.80;;;;;;;14.45;60.99;101304.45;1633506;86;21045;-78
2022/09/06 06:37:10;;;;;;;3.83;1.50;;;;;;;14.50;61.10;101300.32;1634892;86;21081;-76
2022/09/06 06:39:37;;;;;;;3.72;1.62;;;;;;;14.60;61.34;101294.24;1634221;87;21065;-77
2022/09/06 06:42:04;;;;;;;5.50;1.87;;;;;;;14.65;60.98;101290.97;1634282;86;21835;-86
2022/09/06 06:44:33;;;;;;;5.60;2.12;;;;;;;14.71;61.24;101295.56;1634674;86;21152;-84
2022/09/06 06:47:01;;;;;;;2.92;1.60;;;;;;;14.81;61.49;101295.17;1628898;86;21013;-76
2022/09/06 06:49:29;;;;;;;5.28;2.17;;;;;;;14.91;60.96;101293.89;1630140;86;21538;-74
2022/09/06 06:51:55;;;;;;;4.83;1.95;;;;;;;14.98;60.89;101291.38;1634661;86;21077;-74
2022/09/06 06:54:22;;;;;;;5.08;2.25;;;;;;;15.05;61.04;101286.26;1633899;85;21151;-75
2022/09/06 06:56:50;;;;;;;4.45;1.90;;;;;;;15.17;60.92;101281.77;1635010;86;21057;-73
2022/09/06 06:59:17;;;;;;;3.15;1.90;;;;;;;15.26;60.81;101270.42;1634046;86;21081;-75
2022/09/06 07:01:44;;;;;;;5.87;2.22;;;;;;;15.34;60.64;101273.13;1635280;87;21495;-74
2022/09/06 07:04:13;;;;;;;3.27;1.98;;;;;;;15.41;60.39;101277.70;1634869;87;21173;-73
2022/09/06 07:06:49;;;;;;;4.45;1.82;;;;;;;15.49;60.41;101280.87;1634640;86;21503;-73
2022/09/06 07:09:17;;;;;;;3.50;2.03;;;;;;;15.54;60.30;101276.69;1635579;87;21081;-80
2022/09/06 07:11:47;;;;;;;3.95;2.10;;;;;;;15.62;59.86;101271.92;1634891;87;21574;-82
2022/09/06 07:14:17;;;;;;;3.80;1.72;;;;;;;15.66;59.87;101277.92;1634330;86;21093;-81
2022/09/06 07:16:44;;;;;;;3.10;2.00;;;;;;;15.75;60.23;101277.11;1634642;86;22272;-77
2022/09/06 07:19:11;;;;;;;5.08;2.10;;;;;;;15.82;59.76;101275.91;1634836;86;21660;-80
2022/09/06 07:21:38;;;;;;;5.40;2.45;;;;;;;15.91;59.86;101272.47;1634906;86;21081;-81
2022/09/06 07:24:06;;;;;;;6.20;2.33;;;;;;;16.01;59.70;101270.63;1634825;86;21077;-78
2022/09/06 07:26:34;;;;;;;3.30;1.98;;;;;;;16.08;59.57;101271.69;1634976;86;21136;-79
2022/09/06 07:29:03;;;;;;;4.90;1.75;;;;;;;16.15;59.46;101275.75;1635015;86;21496;-84
2022/09/06 07:31:31;;;;;;;4.55;2.02;;;;;;;16.20;59.50;101277.25;1634448;86;22045;-83
2022/09/06 07:33:58;;;;;;;3.42;2.05;;;;;;;16.31;59.55;101282.05;1634668;86;21515;-77
2022/09/06 07:36:25;;;;;;;4.20;1.87;;;;;;;16.38;59.02;101282.59;1635014;86;21066;-80
2022/09/06 07:38:52;;;;;;;10.98;2.02;;;;;;;16.43;59.14;101285.45;1634222;86;21056;-84
2022/09/06 07:41:19;;;;;;;3.95;2.02;;;;;;;16.52;58.94;101286.80;1634527;86;21093;-83
2022/09/06 07:43:46;;;;;;;8.55;2.35;;;;;;;16.58;58.64;101279.03;1634826;87;21950;-82
2022/09/06 07:46:16;;;;;;;2.90;1.87;;;;;;;16.64;58.64;101276.08;1635154;87;21736;-81
2022/09/06 07:48:45;;;;;;;3.52;2.08;;;;;;;16.70;59.02;101281.92;1635361;87;21057;-77
2022/09/06 07:51:15;;;;;;;4.00;1.95;;;;;;;16.79;58.89;101278.47;1635095;87;21579;-79
2022/09/06 07:53:46;;;;;;;6.10;1.80;;;;;;;16.88;58.78;101280.22;1635352;85;21081;-82
2022/09/06 07:56:14;;;;;;;5.10;2.00;;;;;;;16.95;58.69;101280.76;1635253;87;22268;-80
2022/09/06 07:58:41;;;;;;;3.17;1.90;;;;;;;17.04;58.43;101280.29;1635150;87;21034;-81
2022/09/06 08:01:29;;;;;;;3.37;2.27;;;;;;;17.14;58.48;101273.61;1635395;87;21096;-82
2022/09/06 08:04:05;;;;;;;4.33;2.00;;;;;;;17.22;58.00;101279.84;1635127;87;21065;-79
2022/09/06 08:06:36;;;;;;;4.92;2.10;;;;;;;17.31;58.00;101278.04;1616566;87;21073;-79
2022/09/06 08:09:09;;;;;;;3.35;1.90;;;;;;;17.50;58.11;101278.43;1635004;87;21161;-74
2022/09/06 08:11:37;;;;;;;3.60;2.12;;;;;;;17.69;58.04;101277.00;1635260;86;21137;-73
2022/09/06 08:14:07;;;;;;;4.97;1.87;;;;;;;17.87;57.94;101271.20;1635179;87;21089;-72
2022/09/06 08:16:36;;;;;;;5.15;2.17;;;;;;;18.01;57.74;101274.85;1635599;87;21101;-72
2022/09/06 08:19:09;;;;;;;6.28;2.58;;;;;;;18.16;57.46;101278.92;1635162;87;22052;-73
2022/09/06 08:21:36;;;;;;;3.67;2.27;;;;;;;18.32;57.23;101284.22;1634955;87;21243;-73
2022/09/06 08:24:11;;;;;;;6.62;2.30;;;;;;;18.43;56.53;101269.91;1635298;87;22314;-82
2022/09/06 08:26:39;;;;;;;3.52;2.20;;;;;;;18.48;56.38;101271.37;1635127;87;21911;-78
2022/09/06 08:29:07;;;;;;;4.12;2.20;;;;;;;18.56;56.23;101270.06;1634871;86;21526;-81
2022/09/06 08:31:38;;;;;;;3.52;2.15;;;;;;;18.62;55.97;101273.24;1635328;86;21519;-78
2022/09/06 08:34:05;;;;;;;5.58;2.27;;;;;;;18.67;56.00;101271.16;1635065;87;21091;-76
2022/09/06 08:36:33;;;;;;;4.30;2.17;;;;;;;18.73;55.86;101268.17;1635062;87;21139;-75
2022/09/06 08:39:08;;;;;;;4.53;2.20;;;;;;;18.74;55.56;101267.73;1634886;86;21009;-74
2022/09/06 08:42:00;;;;;;;4.15;2.00;;;;;;;18.76;55.57;101269.83;1634914;87;21498;-73
2022/09/06 08:44:35;;;;;;;4.97;2.33;;;;;;;18.73;55.60;101268.62;1634179;87;21073;-74
2022/09/06 08:47:11;;;;;;;4.33;2.08;;;;;;;18.78;55.55;101271.91;1634989;87;21251;-74
2022/09/06 08:49:45;;;;;;;5.08;2.17;;;;;;;18.83;55.27;101269.84;1635106;87;21073;-74
2022/09/06 08:52:37;;;;;;;5.62;2.42;;;;;;;18.98;55.40;101270.74;1633924;87;21096;-75
2022/09/06 08:55:36;;;;;;;5.22;2.40;;;;;;;19.09;55.12;101267.02;1635949;85;21077;-74
2022/09/06 08:58:28;;;;;;;;;;;;;;;19.24;55.04;101268.38;1637870;87;22318;-75
2022/09/06 09:01:15;;;;;;;4.80;2.25;;;;;;;19.34;54.79;101268.19;1634767;87;21354;-75
2022/09/06 09:03:43;;;;;;;5.35;2.10;;;;;;;19.46;54.90;101263.95;1634838;87;21523;-76
2022/09/06 09:06:10;;;;;;;4.70;2.40;;;;;;;19.60;55.17;101259.98;1635587;87;21073;-75
2022/09/06 09:09:06;;;;;;;9.20;2.58;;;;;;;19.76;54.54;101255.46;1635303;87;21622;-75
2022/09/06 09:11:35;;;;;;;6.42;2.20;;;;;;;19.90;54.64;101250.61;1635321;87;21108;-75
2022/09/06 09:14:21;;;;;;;5.33;2.60;;;;;;;20.15;54.32;101253.06;1635390;87;21151;-75
2022/09/06 09:16:54;;;;;;;5.00;2.20;;;;;;;20.29;53.95;101250.37;1635886;87;21080;-77
2022/09/06 09:19:21;;;;;;;6.95;2.50;;;;;;;20.46;53.89;101248.79;1638075;87;21045;-75
2022/09/06 09:21:48;;;;;;;4.80;2.75;;;;;;;20.57;53.32;101246.80;1638184;87;21539;-76
2022/09/06 09:24:15;;;;;;;5.45;2.42;;;;;;;20.69;53.04;101245.97;1637993;87;21620;-76
2022/09/06 09:27:07;;;;;;;4.10;2.27;;;;;;;20.79;52.95;101244.90;1638252;87;21300;-76
2022/09/06 09:29:59;;;;;;;8.10;2.37;;;;;;;20.96;52.83;101245.59;1637986;87;21540;-76
2022/09/06 09:32:39;;;;;;;5.15;2.75;;;;;;;21.08;52.31;101238.08;1648952;86;21013;-76
2022/09/06 09:35:32;;;;;;;3.98;2.70;;;;;;;21.14;52.00;101229.20;1639536;87;21520;-76
2022/09/06 09:38:13;;;;;;;5.10;2.72;;;;;;;21.18;51.82;101230.33;1638388;86;21622;-76
2022/09/06 09:40:57;;;;;;;4.25;2.58;;;;;;;21.13;51.49;101230.14;1638142;87;21162;-76
2022/09/06 09:43:43;;;;;;;6.70;2.60;;;;;;;21.06;51.27;101234.66;1638324;87;21061;-76
2022/09/06 09:46:18;;;;;;;3.75;2.40;;;;;;;21.02;51.30;101235.84;1635329;87;21070;-76
2022/09/06 09:49:10;;;;;;;5.03;2.30;;;;;;;20.99;51.08;101227.57;1638338;86;21073;-76
2022/09/06 09:51:47;;;;;;;3.50;2.08;;;;;;;20.99;51.34;101214.24;1632150;87;21069;-76
2022/09/06 09:54:20;;;;;;;4.50;2.40;;;;;;;21.03;51.17;101210.88;1638346;86;22012;-76
2022/09/06 09:56:52;;;;;;;3.62;2.08;;;;;;;21.05;51.11;101199.16;1635486;86;21053;-77
2022/09/06 09:59:32;;;;;;;6.12;2.40;;;;;;;21.10;50.76;101198.37;1638192;86;21536;-76
2022/09/06 10:02:03;;;;;;;4.92;2.37;;;;;;;21.18;50.60;101191.19;1637236;87;21069;-76
2022/09/06 10:04:35;;;;;;;3.90;2.30;;;;;;;21.37;50.40;101194.80;1636552;87;21057;-76
2022/09/06 10:07:15;;;;;;;3.90;2.22;;;;;;;21.52;50.09;101190.19;1637716;87;21154;-76
2022/09/06 10:09:49;;;;;;;3.42;2.10;;;;;;;21.56;49.90;101186.33;1638185;87;21088;-76
2022/09/06 10:12:30;;;;;;;5.22;2.25;;;;;;;21.66;49.88;101184.73;1641220;87;21460;-76
2022/09/06 10:14:58;;;;;;;2.92;2.05;;;;;;;21.92;49.67;101182.87;1641314;86;21500;-76
2022/09/06 10:17:35;;;;;;;5.53;2.25;;;;;;;22.10;48.90;101185.16;1638276;87;21073;-76
2022/09/06 10:20:07;;;;;;;4.20;2.10;;;;;;;22.26;48.78;101173.77;1638115;86;21810;-76
2022/09/06 10:23:07;;;;;;;5.62;2.37;;;;;;;22.33;48.56;101172.81;1637970;87;21502;-76
2022/09/06 10:25:46;;;;;;;4.60;2.10;;;;;;;22.46;48.23;101176.28;1637973;87;21069;-76
2022/09/06 10:28:30;;;;;;;5.50;1.80;;;;;;;22.67;47.99;101176.50;1638486;87;21078;-76
2022/09/06 10:31:32;;;;;;;5.72;2.30;;;;;;;22.82;47.66;101173.14;1638053;87;21274;-76
2022/09/06 10:34:19;;;;;;;4.90;2.42;;;;;;;23.02;47.54;101175.64;1638066;86;22063;-76
2022/09/06 10:37:03;;;;;;;6.12;1.95;;;;;;;23.20;47.36;101180.06;1637931;87;21122;-77
2022/09/06 10:40:06;;;;;;;5.37;2.30;;;;;;;23.35;47.19;101172.16;1637119;86;21043;-77
2022/09/06 10:42:53;;;;;;;5.05;1.75;;;;;;;23.38;46.23;101173.25;1638133;87;21085;-76
2022/09/06 10:45:46;;;;;;;5.87;1.85;;;;;;;23.45;46.00;101165.62;1620491;87;21069;-76
2022/09/06 10:48:21;;;;;;;3.30;1.80;;;;;;;23.46;45.71;101159.28;1646805;86;21264;-78
2022/09/06 10:51:24;;;;;;;4.15;1.42;;;;;;;23.56;45.16;101162.94;1637744;87;21543;-76
2022/09/06 10:53:59;;;;;;;2.20;1.50;;;;;;;23.71;44.88;101166.23;1638157;87;21045;-76
2022/09/06 10:56:50;;;;;;;6.30;1.47;;;;;;;23.78;43.58;101167.45;1637987;87;21614;-77
2022/09/06 10:59:31;;;;;;;6.50;1.62;;;;;;;23.78;43.59;101159.42;1638084;87;21054;-76
2022/09/06 11:02:39;;;;;;;1.95;1.40;;;;;;;23.79;43.10;101161.96;1638157;86;21913;-77
2022/09/06 11:05:12;;;;;;;3.30;1.60;;;;;;;23.75;42.76;101163.66;1620306;86;21022;-83
2022/09/06 11:07:45;;;;;;;4.12;1.50;;;;;;;23.51;42.00;101160.62;1627833;86;21094;-75
2022/09/06 11:10:33;;;;;;;5.92;1.82;;;;;;;23.28;42.11;101166.45;1633565;86;21026;-75
2022/09/06 11:13:11;;;;;;;3.85;1.40;;;;;;;23.10;41.90;101160.70;1628297;86;21118;-75
2022/09/06 11:16:07;;;;;;;2.22;1.52;;;;;;;22.96;42.03;101162.75;1633052;86;21120;-75
2022/09/06 11:18:58;;;;;;;2.22;1.52;;;;;;;22.81;42.23;101157.59;1633753;86;21026;-82
2022/09/06 11:21:48;;;;;;;4.78;1.32;;;;;;;22.73;42.29;101155.98;1628652;86;21505;-75
2022/09/06 11:24:53;;;;;;;2.80;1.47;;;;;;;22.74;42.33;101155.49;1637042;86;21226;-76
2022/09/06 11:27:31;;;;;;;3.80;1.42;;;;;;;22.92;42.34;101149.59;1629909;86;21074;-76
2022/09/06 11:30:00;;;;;;;5.37;1.70;;;;;;;23.03;42.31;101154.15;1628926;86;21197;-75
2022/09/06 11:32:47;;;;;;;1.92;1.47;;;;;;;22.95;42.11;101147.17;1633378;86;21062;-75
2022/09/06 11:35:24;;;;;;;2.50;1.42;;;;;;;22.77;42.10;101143.23;1628220;86;21539;-75
2022/09/06 11:38:17;;;;;;;2.40;1.60;;;;;;;22.66;41.84;101140.03;1632564;86;21092;-75
2022/09/06 11:40:49;;;;;;;2.85;1.57;;;;;;;22.66;41.90;101140.88;1633716;86;21453;-75
2022/09/06 11:43:38;;;;;;;5.35;1.60;;;;;;;22.77;42.20;101138.73;1629270;86;21058;-75
2022/09/06 11:46:06;;;;;;;3.80;1.77;;;;;;;22.98;41.87;101138.09;1622505;86;21074;-76
2022/09/06 11:48:50;;;;;;;5.70;1.57;;;;;;;22.99;41.97;101141.97;1628963;86;21269;-76
2022/09/06 11:51:35;;;;;;;3.42;1.30;;;;;;;22.91;41.48;101138.52;1633934;86;21064;-75
2022/09/06 11:54:23;;;;;;;2.83;1.50;;;;;;;22.83;41.35;101134.73;1633572;86;21076;-76
2022/09/06 11:56:58;;;;;;;4.95;1.62;;;;;;;22.76;41.30;101137.53;1588018;88;22030;-75